Harold, Florida
Current Conditions -  °F | °C
As of 9:56 AM on Friday 21 Nov 2014 (Local Time) from KNDZ Reporting Station
Clear Clear  
Wind Chill: 65°   Ceiling: Unl
Heat Index: 65°   Visibility: 10mi
Dew Point: 46°   Wind: 10mph
Humidity: 50%   Direction: 50°NE
Pressure: 30.37"   Gusts: NA
Location:  30.66°N, 86.88°W
Report Text: KNDZ 211556Z 05009KT 10SM CLR 18/08 A3037 RMK AO2 SLP271 FU DSNT NE T01830078
Loading
Personal Weather Stations






























Interactive Weather Map New forecast layout! Learn more

10-Day Weather Forecast

Advertisements
Track Severe Weather on mobile